地図

経路データ

SID SEASON NUMBER BASIN SUBBASIN NAME ISO_TIME NATURE LAT LON WMO_WIND WMO_PRES WMO_AGENCY TRACK_TYPE DIST2LAND LANDFALL IFLAG USA_AGENCY USA_ATCF_ID USA_LAT USA_LON USA_RECORD USA_STATUS USA_WIND USA_PRES USA_SSHS USA_R34_NE USA_R34_SE USA_R34_SW USA_R34_NW USA_R50_NE USA_R50_SE USA_R50_SW USA_R50_NW USA_R64_NE USA_R64_SE USA_R64_SW USA_R64_NW USA_POCI USA_ROCI USA_RMW USA_EYE TOKYO_LAT TOKYO_LON TOKYO_GRADE TOKYO_WIND TOKYO_PRES TOKYO_R50_DIR TOKYO_R50_LONG TOKYO_R50_SHORT TOKYO_R30_DIR TOKYO_R30_LONG TOKYO_R30_SHORT TOKYO_LAND CMA_LAT CMA_LON CMA_CAT CMA_WIND CMA_PRES HKO_LAT HKO_LON HKO_CAT HKO_WIND HKO_PRES NEWDELHI_LAT NEWDELHI_LON NEWDELHI_GRADE NEWDELHI_WIND NEWDELHI_PRES NEWDELHI_CI NEWDELHI_DP NEWDELHI_POCI REUNION_LAT REUNION_LON REUNION_TYPE REUNION_WIND REUNION_PRES REUNION_TNUM REUNION_CI REUNION_RMW REUNION_R34_NE REUNION_R34_SE REUNION_R34_SW REUNION_R34_NW REUNION_R50_NE REUNION_R50_SE REUNION_R50_SW REUNION_R50_NW REUNION_R64_NE REUNION_R64_SE REUNION_R64_SW REUNION_R64_NW BOM_LAT BOM_LON BOM_TYPE BOM_WIND BOM_PRES BOM_TNUM BOM_CI BOM_RMW BOM_R34_NE BOM_R34_SE BOM_R34_SW BOM_R34_NW BOM_R50_NE BOM_R50_SE BOM_R50_SW BOM_R50_NW BOM_R64_NE BOM_R64_SE BOM_R64_SW BOM_R64_NW BOM_ROCI BOM_POCI BOM_EYE BOM_POS_METHOD BOM_PRES_METHOD NADI_LAT NADI_LON NADI_CAT NADI_WIND NADI_PRES WELLINGTON_LAT WELLINGTON_LON WELLINGTON_WIND WELLINGTON_PRES DS824_LAT DS824_LON DS824_STAGE DS824_WIND DS824_PRES TD9636_LAT TD9636_LON TD9636_STAGE TD9636_WIND TD9636_PRES TD9635_LAT TD9635_LON TD9635_WIND TD9635_PRES TD9635_ROCI NEUMANN_LAT NEUMANN_LON NEUMANN_CLASS NEUMANN_WIND NEUMANN_PRES MLC_LAT MLC_LON MLC_CLASS MLC_WIND MLC_PRES USA_GUST BOM_GUST BOM_GUST_PER REUNION_GUST REUNION_GUST_PER USA_SEAHGT USA_SEARAD_NE USA_SEARAD_SE USA_SEARAD_SW USA_SEARAD_NW STORM_SPEED STORM_DIR
1969282N18087 1969 101 NI BB NOT_NAMED 1969-10-08 18:00:00 TS 18.2000 87.0000 main 210 210 O________O____ jtwc_io IO101969 18.2000 87.0000 -1 18.2000 87.0000 TC 0 0
1969282N18087 1969 101 NI BB NOT_NAMED 1969-10-08 21:00:00 TS 18.2125 87.0000 main 210 200 P________P____ IO101969 18.2125 87.0000 -1 18.2125 87.0000 TC 1 0
1969282N18087 1969 101 NI BB NOT_NAMED 1969-10-09 00:00:00 TS 18.3000 87.0000 main 200 179 O________O____ jtwc_io IO101969 18.3000 87.0000 -1 18.3000 87.0000 TC 25 3 1
1969282N18087 1969 101 NI BB NOT_NAMED 1969-10-09 03:00:00 TS 18.5111 87.0000 main 179 148 P________PO___ IO101969 18.5125 87.0000 -1 18.5125 87.0000 TC 25 18.5000 87.0000 1 5 0
1969282N18087 1969 101 NI BB NOT_NAMED 1969-10-09 06:00:00 TS 18.8041 86.9959 main 148 118 O________OP___ jtwc_io IO101969 18.8000 87.0000 -1 18.8000 87.0000 TC 25 18.8204 86.9797 1 6 0
1969282N18087 1969 101 NI BB NOT_NAMED 1969-10-09 09:00:00 TS 19.1089 86.9911 main 118 91 P________PP___ IO101969 19.1000 87.0000 -1 19.1000 87.0000 TC 25 19.1326 86.9675 1 6 0
1969282N18087 1969 101 NI BB NOT_NAMED 1969-10-09 12:00:00 TS 19.4095 86.9905 main 91 71 O________OP___ jtwc_io IO101969 19.4000 87.0000 -1 19.4000 87.0000 TC 25 19.4285 86.9715 1 6 0
1969282N18087 1969 101 NI BB NOT_NAMED 1969-10-09 15:00:00 TS 19.6717 86.9851 main 71 54 P________PO___ IO101969 19.6575 86.9776 -1 19.6575 86.9776 TC 30 19.7000 87.0000 1 5 5
1969282N18087 1969 101 NI BB NOT_NAMED 1969-10-09 18:00:00 TS 19.9141 87.0203 main 54 45 O________OP___ jtwc_io IO101969 19.9000 87.0000 -1 19.9000 87.0000 TC 35 19.9423 87.0608 1 5 15
1969282N18087 1969 101 NI BB NOT_NAMED 1969-10-09 21:00:00 TS 20.1599 87.1334 main 43 43 P________PP___ IO101969 20.1575 87.1199 -1 20.1575 87.1199 TC 35 20.1647 87.1604 1 5 29
1969282N18087 1969 101 NI BB NOT_NAMED 1969-10-10 00:00:00 TS 20.3932 87.3016 main 45 38 O________OP___ jtwc_io IO101969 20.4000 87.3000 -1 20.4000 87.3000 TC 35 20.3797 87.3048 1 6 37
1969282N18087 1969 101 NI BB NOT_NAMED 1969-10-10 03:00:00 TS 20.6000 87.4851 main 53 52 P________PO___ IO101969 20.5999 87.4776 -1 20.5999 87.4776 TC 35 20.6000 87.5000 3 6 43
1969282N18087 1969 101 NI BB NOT_NAMED 1969-10-10 06:00:00 TS 20.8129 87.7112 main 72 70 O________OP___ jtwc_io IO101969 20.8000 87.7000 -1 20.8000 87.7000 TC 35 20.8387 87.7336 3 7 46
1969282N18087 1969 101 NI BB NOT_NAMED 1969-10-10 09:00:00 TS 21.0516 87.9860 main 59 33 P________PP___ IO101969 21.0349 87.9701 -1 21.0349 87.9701 TC 30 21.0849 88.0178 3 8 48
1969282N18087 1969 101 NI BB NOT_NAMED 1969-10-10 12:00:00 TS 21.3129 88.3144 main 33 10 O________OP___ jtwc_io IO101969 21.3000 88.3000 -1 21.3000 88.3000 TC 25 21.3386 88.3431 3 9 50
1969282N18087 1969 101 NI BB NOT_NAMED 1969-10-10 15:00:00 TS 21.6000 88.6900 main 11 0 P________PO___ IO101969 21.6000 88.6850 -1 21.6000 88.6850 TC 25 21.6000 88.7000 1 9 52
1969282N18087 1969 101 NI BB NOT_NAMED 1969-10-10 18:00:00 TS 21.8875 89.0918 main 0 0 O________OP___ jtwc_io IO101969 21.9000 89.1000 -1 21.9000 89.1000 TC 25 21.8689 89.0796 1 9 53
1969282N18087 1969 101 NI BB NOT_NAMED 1969-10-10 21:00:00 TS 22.1544 89.4925 main 0 0 P________PP___ IO101969 22.1626 89.5048 -1 22.1626 89.5048 TC 25 22.1433 89.4761 1 9 55
1969282N18087 1969 101 NI BB NOT_NAMED 1969-10-11 00:00:00 TS 22.4106 89.8923 main 0 0 O________OP___ jtwc_io IO101969 22.4000 89.9000 -1 22.4000 89.9000 TC 25 22.4211 89.8847 1 9 54
1969282N18087 1969 101 NI BB NOT_NAMED 1969-10-11 03:00:00 NR 22.7000 90.3000 main 0 __________O___ IO101969 -1 TC 22.7000 90.3000 1 10 52

IBTrACS Databaseについて

本データベースは、米国NOAAが公開する1842年以降の世界の熱帯低気圧のベストトラックデータアーカイブInternational Best Track Archive for Climate Stewardship (IBTrACS)を、ウェブで閲覧しやすい形式に変換したものです。

最終更新日:2021-11-26